createdAt,value
2018-01-18T00:00:48.006Z,4.69
2018-01-18T00:03:15.550Z,4.68
2018-01-18T00:05:43.066Z,4.67
2018-01-18T00:08:10.702Z,4.65
2018-01-18T00:10:38.399Z,4.59
2018-01-18T00:13:06.135Z,4.53
2018-01-18T00:15:33.933Z,4.48
2018-01-18T00:18:01.551Z,4.42
2018-01-18T00:20:29.270Z,4.36
2018-01-18T00:22:56.888Z,4.30
2018-01-18T00:25:24.442Z,4.28
2018-01-18T00:27:51.970Z,4.20
2018-01-18T00:30:19.796Z,4.15
2018-01-18T00:32:47.313Z,4.14
2018-01-18T00:35:14.894Z,4.13
2018-01-18T00:37:42.550Z,4.06
2018-01-18T00:40:10.078Z,4.06
2018-01-18T00:42:37.784Z,4.06
2018-01-18T00:45:05.318Z,4.09
2018-01-18T00:47:33.023Z,4.04
2018-01-18T00:50:00.635Z,4.16
2018-01-18T00:52:28.456Z,4.16
2018-01-18T00:54:55.998Z,4.18
2018-01-18T00:57:23.695Z,4.19
2018-01-18T00:59:51.234Z,4.18
2018-01-18T01:02:18.759Z,4.21
2018-01-18T01:04:46.334Z,4.24
2018-01-18T01:07:13.874Z,4.22
2018-01-18T01:09:41.394Z,4.23
2018-01-18T01:12:08.999Z,4.28
2018-01-18T01:14:36.582Z,4.27
2018-01-18T01:17:04.142Z,4.29
2018-01-18T01:19:31.661Z,4.32
2018-01-18T01:21:59.233Z,4.31
2018-01-18T01:24:26.793Z,4.23
2018-01-18T01:26:54.318Z,4.26
2018-01-18T01:29:21.862Z,4.24
2018-01-18T01:31:49.386Z,4.23
2018-01-18T01:34:16.918Z,4.23
2018-01-18T01:36:44.478Z,4.14
2018-01-18T01:39:12.058Z,4.20
2018-01-18T01:41:39.582Z,4.20
2018-01-18T01:44:07.112Z,4.18
2018-01-18T01:46:34.683Z,4.18
2018-01-18T01:49:02.214Z,4.16
2018-01-18T01:51:29.978Z,4.10
2018-01-18T01:53:57.505Z,4.06
2018-01-18T01:56:25.114Z,4.00
2018-01-18T01:58:52.647Z,3.98
2018-01-18T02:01:20.191Z,3.89
2018-01-18T02:03:47.757Z,3.87
2018-01-18T02:06:15.484Z,3.88
2018-01-18T02:08:43.034Z,3.85
2018-01-18T02:11:10.820Z,3.82
2018-01-18T02:13:38.345Z,3.80
2018-01-18T02:16:06.057Z,3.78
2018-01-18T02:18:33.674Z,3.74
2018-01-18T02:21:01.235Z,3.71
2018-01-18T02:23:28.912Z,3.71
2018-01-18T02:25:56.530Z,3.72
2018-01-18T02:28:24.091Z,3.74
2018-01-18T02:30:51.606Z,3.74
2018-01-18T02:33:19.145Z,3.72
2018-01-18T02:35:46.670Z,3.74
2018-01-18T02:38:14.257Z,3.75
2018-01-18T02:40:42.034Z,3.74
2018-01-18T02:43:09.550Z,3.74
2018-01-18T02:45:37.082Z,3.72
2018-01-18T02:48:04.626Z,3.73
2018-01-18T02:50:32.158Z,3.65
2018-01-18T02:52:59.885Z,3.63
2018-01-18T02:55:27.463Z,3.59
2018-01-18T02:57:54.995Z,3.58
2018-01-18T03:00:22.530Z,3.52
2018-01-18T03:02:50.066Z,3.50
2018-01-18T03:05:17.711Z,3.52
2018-01-18T03:07:45.242Z,3.48
2018-01-18T03:10:12.807Z,3.49
2018-01-18T03:12:40.455Z,3.51
2018-01-18T03:15:07.990Z,3.50
2018-01-18T03:17:35.511Z,3.51
2018-01-18T03:20:03.062Z,3.50
2018-01-18T03:22:30.589Z,3.47
2018-01-18T03:24:58.252Z,3.46
2018-01-18T03:27:25.934Z,3.44
2018-01-18T03:29:53.506Z,3.43
2018-01-18T03:32:21.206Z,3.41
2018-01-18T03:34:48.823Z,3.44
2018-01-18T03:37:16.366Z,3.44
2018-01-18T03:39:43.962Z,3.40
2018-01-18T03:42:11.502Z,3.35
2018-01-18T03:44:39.194Z,3.33
2018-01-18T03:47:06.762Z,3.24
2018-01-18T03:49:34.299Z,3.24
2018-01-18T03:52:01.818Z,3.24
2018-01-18T03:54:29.469Z,3.19
2018-01-18T03:56:57.183Z,3.14
2018-01-18T03:59:24.717Z,3.13
2018-01-18T04:01:52.319Z,3.08
2018-01-18T04:04:19.894Z,3.03
2018-01-18T04:06:47.418Z,3.02
2018-01-18T04:09:15.176Z,2.96
2018-01-18T04:11:42.892Z,2.94
2018-01-18T04:14:10.709Z,2.96
2018-01-18T04:16:38.331Z,2.94
2018-01-18T04:19:06.220Z,2.81
2018-01-18T04:21:33.814Z,2.82
2018-01-18T04:24:01.581Z,2.77
2018-01-18T04:26:29.199Z,2.68
2018-01-18T04:28:56.734Z,2.65
2018-01-18T04:31:24.258Z,2.61
2018-01-18T04:33:51.794Z,2.49
2018-01-18T04:36:19.369Z,2.39
2018-01-18T04:38:46.918Z,2.41
2018-01-18T04:41:14.444Z,2.30
2018-01-18T04:43:42.122Z,2.23
2018-01-18T04:46:09.666Z,2.20
2018-01-18T04:48:37.195Z,2.14
2018-01-18T04:51:04.786Z,2.08
2018-01-18T04:53:32.309Z,2.03
2018-01-18T04:55:59.950Z,1.97
2018-01-18T04:58:27.729Z,1.90
2018-01-18T05:00:55.330Z,1.83
2018-01-18T05:03:22.906Z,1.79
2018-01-18T05:05:50.520Z,1.69
2018-01-18T05:08:18.099Z,1.62
2018-01-18T05:10:45.860Z,1.59
2018-01-18T05:13:13.575Z,1.55
2018-01-18T05:15:41.110Z,1.56
2018-01-18T05:18:08.707Z,1.53
2018-01-18T05:20:36.427Z,1.52
2018-01-18T05:23:03.974Z,1.48
2018-01-18T05:25:31.509Z,1.50
2018-01-18T05:27:59.051Z,1.53
2018-01-18T05:30:26.588Z,1.50
2018-01-18T05:32:54.131Z,1.49
2018-01-18T05:35:21.734Z,1.48
2018-01-18T05:37:49.374Z,1.51
2018-01-18T05:40:16.894Z,1.51
2018-01-18T05:42:44.414Z,1.50
2018-01-18T05:45:11.957Z,1.52
2018-01-18T05:47:39.485Z,1.53
2018-01-18T05:50:07.042Z,1.51
2018-01-18T05:52:34.566Z,1.49
2018-01-18T05:55:02.263Z,1.49
2018-01-18T05:57:30.079Z,1.49
2018-01-18T05:59:57.623Z,1.50
2018-01-18T06:02:25.366Z,1.53
2018-01-18T06:04:52.898Z,1.53
2018-01-18T06:07:20.550Z,1.54
2018-01-18T06:09:48.239Z,1.59
2018-01-18T06:12:15.856Z,1.53
2018-01-18T06:14:43.512Z,1.53
2018-01-18T06:17:11.042Z,1.54
2018-01-18T06:19:38.611Z,1.55
2018-01-18T06:22:06.562Z,1.55
2018-01-18T06:24:34.095Z,1.52
2018-01-18T06:27:01.634Z,1.61
2018-01-18T06:29:29.303Z,1.63
2018-01-18T06:31:56.872Z,1.66
2018-01-18T06:34:24.456Z,1.68
2018-01-18T06:36:52.006Z,1.74
2018-01-18T06:39:19.533Z,1.71
2018-01-18T06:41:47.069Z,1.73
2018-01-18T06:44:14.602Z,1.75
2018-01-18T06:46:42.433Z,1.79
2018-01-18T06:49:09.974Z,1.82
2018-01-18T06:51:37.560Z,1.87
2018-01-18T06:54:05.187Z,1.91
2018-01-18T06:56:32.806Z,1.95
2018-01-18T06:59:00.346Z,1.96
2018-01-18T07:01:27.886Z,1.88
2018-01-18T07:03:55.562Z,1.90
2018-01-18T07:06:23.183Z,1.86
2018-01-18T07:08:50.726Z,1.90
2018-01-18T07:11:18.269Z,1.90
2018-01-18T07:13:45.938Z,1.88
2018-01-18T07:16:13.552Z,1.92
2018-01-18T07:18:41.151Z,1.93
2018-01-18T07:21:08.807Z,1.97
2018-01-18T07:23:36.350Z,1.98
2018-01-18T07:26:04.020Z,2.01
2018-01-18T07:28:31.836Z,2.06
2018-01-18T07:30:59.411Z,2.10
2018-01-18T07:33:27.073Z,2.11
2018-01-18T07:35:54.594Z,2.11
2018-01-18T07:38:22.186Z,2.14
2018-01-18T07:40:49.737Z,2.13
2018-01-18T07:43:17.262Z,2.16
2018-01-18T07:45:44.817Z,2.21
2018-01-18T07:48:12.483Z,2.24
2018-01-18T07:50:40.050Z,2.25
2018-01-18T07:53:07.695Z,2.28
2018-01-18T07:55:35.306Z,2.35
2018-01-18T07:58:02.845Z,2.38
2018-01-18T08:00:30.398Z,2.41
2018-01-18T08:03:03.570Z,2.48
2018-01-18T08:05:31.113Z,2.54
2018-01-18T08:07:58.688Z,2.56
2018-01-18T08:10:26.457Z,2.57
2018-01-18T08:12:54.010Z,2.60
2018-01-18T08:15:21.550Z,2.64
2018-01-18T08:17:49.144Z,2.66
2018-01-18T08:20:16.679Z,2.73
2018-01-18T08:22:44.227Z,2.80
2018-01-18T08:25:11.866Z,2.90
2018-01-18T08:27:39.587Z,2.93
2018-01-18T08:30:07.142Z,2.88
2018-01-18T08:32:34.819Z,2.93
2018-01-18T08:35:02.402Z,2.99
2018-01-18T08:37:29.942Z,3.00
2018-01-18T08:39:57.576Z,3.07
2018-01-18T08:42:25.481Z,3.11
2018-01-18T08:44:53.002Z,3.17
2018-01-18T08:47:20.690Z,3.16
2018-01-18T08:49:48.221Z,3.16
2018-01-18T08:52:15.802Z,3.19
2018-01-18T08:54:43.478Z,3.20
2018-01-18T08:57:11.002Z,3.24
2018-01-18T08:59:38.543Z,3.37
2018-01-18T09:02:06.143Z,3.52
2018-01-18T09:04:33.854Z,3.76
2018-01-18T09:07:01.393Z,3.92
2018-01-18T09:09:29.091Z,4.04
2018-01-18T09:11:56.617Z,4.16
2018-01-18T09:14:24.134Z,4.27
2018-01-18T09:16:51.684Z,4.30
2018-01-18T09:19:19.354Z,4.35
2018-01-18T09:21:47.080Z,4.42
2018-01-18T09:24:14.692Z,4.34
2018-01-18T09:26:42.315Z,4.32
2018-01-18T09:29:09.862Z,4.32
2018-01-18T09:31:37.402Z,4.46
2018-01-18T09:34:04.985Z,4.49
2018-01-18T09:36:32.518Z,4.54
2018-01-18T09:39:00.047Z,4.62
2018-01-18T09:41:27.592Z,4.46
2018-01-18T09:43:55.309Z,4.43
2018-01-18T09:46:22.882Z,4.51
2018-01-18T09:48:50.418Z,4.60
2018-01-18T09:51:18.091Z,4.62
2018-01-18T09:53:45.618Z,4.65
2018-01-18T09:56:13.212Z,4.66
2018-01-18T09:58:40.747Z,4.68
2018-01-18T10:01:08.274Z,4.77
2018-01-18T10:03:35.846Z,4.87
2018-01-18T10:06:03.370Z,4.72
2018-01-18T10:08:30.918Z,4.73
2018-01-18T10:10:58.506Z,4.66
2018-01-18T10:13:26.030Z,4.49
2018-01-18T10:15:53.630Z,4.53
2018-01-18T10:18:21.154Z,4.56
2018-01-18T10:20:48.780Z,4.45
2018-01-18T10:23:16.323Z,4.55
2018-01-18T10:25:43.870Z,4.63
2018-01-18T10:28:11.652Z,4.63
2018-01-18T10:30:39.179Z,4.61
2018-01-18T10:33:06.717Z,4.71
2018-01-18T10:35:34.504Z,4.86
2018-01-18T10:38:02.116Z,5.04
2018-01-18T10:40:29.692Z,5.28
2018-01-18T10:42:57.257Z,5.47
2018-01-18T10:45:24.802Z,5.50
2018-01-18T10:47:52.334Z,5.63
2018-01-18T10:50:19.883Z,5.75
2018-01-18T10:52:47.422Z,5.83
2018-01-18T10:55:15.246Z,5.90
2018-01-18T10:57:42.770Z,5.73
2018-01-18T11:00:10.307Z,5.86
2018-01-18T11:02:38.100Z,5.63
2018-01-18T11:05:05.638Z,5.47
2018-01-18T11:07:33.173Z,5.97
2018-01-18T11:10:00.857Z,6.64
2018-01-18T11:12:28.511Z,7.25
2018-01-18T11:14:56.291Z,7.87
2018-01-18T11:17:23.907Z,8.50
2018-01-18T11:19:51.450Z,8.91
2018-01-18T11:22:18.993Z,9.62
2018-01-18T11:24:46.573Z,9.76
2018-01-18T11:27:14.158Z,9.42
2018-01-18T11:29:41.738Z,9.66
2018-01-18T11:32:09.514Z,9.64
2018-01-18T11:34:37.059Z,10.05
2018-01-18T11:37:04.849Z,9.60
2018-01-18T11:39:32.434Z,9.37
2018-01-18T11:42:00.159Z,9.20
2018-01-18T11:44:27.811Z,9.19
2018-01-18T11:46:55.523Z,9.43
2018-01-18T11:49:23.054Z,8.48
2018-01-18T11:51:50.577Z,8.69
2018-01-18T11:54:18.129Z,8.63
2018-01-18T11:56:45.857Z,8.81
2018-01-18T11:59:13.443Z,8.61
2018-01-18T12:01:40.974Z,8.29
2018-01-18T12:04:08.509Z,8.58
2018-01-18T12:06:36.051Z,8.91
2018-01-18T12:09:03.700Z,8.67
2018-01-18T12:11:31.402Z,7.81
2018-01-18T12:13:58.925Z,8.45
2018-01-18T12:16:26.490Z,8.57
2018-01-18T12:18:54.254Z,8.44
2018-01-18T12:21:21.870Z,7.59
2018-01-18T12:23:49.411Z,7.06
2018-01-18T12:26:16.997Z,6.75
2018-01-18T12:28:44.593Z,6.78
2018-01-18T12:31:12.233Z,7.56
2018-01-18T12:33:39.775Z,7.82
2018-01-18T12:36:07.376Z,8.38
2018-01-18T12:38:34.999Z,8.19
2018-01-18T12:41:02.538Z,8.02
2018-01-18T12:43:30.061Z,8.05
2018-01-18T12:45:57.658Z,9.04
2018-01-18T12:48:25.195Z,10.26
2018-01-18T12:50:52.883Z,10.09
2018-01-18T12:53:20.606Z,9.13
2018-01-18T12:55:48.126Z,8.66
2018-01-18T12:58:15.664Z,8.17
2018-01-18T13:00:43.186Z,7.69
2018-01-18T13:03:10.763Z,7.90
2018-01-18T13:05:38.305Z,7.53
2018-01-18T13:08:05.830Z,7.65
2018-01-18T13:10:33.522Z,8.40
2018-01-18T13:13:01.046Z,8.36
2018-01-18T13:15:28.859Z,7.35
2018-01-18T13:17:56.401Z,6.94
2018-01-18T13:20:23.986Z,6.84
2018-01-18T13:22:51.568Z,6.73
2018-01-18T13:25:19.235Z,6.54
2018-01-18T13:27:46.771Z,6.22
2018-01-18T13:30:14.302Z,5.90
2018-01-18T13:32:41.987Z,5.74
2018-01-18T13:35:09.560Z,6.36
2018-01-18T13:37:37.133Z,6.61
2018-01-18T13:40:04.662Z,6.49
2018-01-18T13:42:32.203Z,6.28
2018-01-18T13:44:59.742Z,6.09
2018-01-18T13:47:27.292Z,6.20
2018-01-18T13:49:55.008Z,6.52
2018-01-18T13:52:22.533Z,6.54
2018-01-18T13:54:50.158Z,6.72
2018-01-18T13:57:17.869Z,6.85
2018-01-18T13:59:45.684Z,6.92
2018-01-18T14:02:13.298Z,6.71
2018-01-18T14:04:40.846Z,6.14
2018-01-18T14:07:08.386Z,5.92
2018-01-18T14:09:35.921Z,5.55
2018-01-18T14:12:03.518Z,5.46
2018-01-18T14:14:31.286Z,6.14
2018-01-18T14:16:58.977Z,6.75
2018-01-18T14:19:26.512Z,6.83
2018-01-18T14:21:54.043Z,6.72
2018-01-18T14:24:21.594Z,6.45
2018-01-18T14:26:49.130Z,6.76
2018-01-18T14:29:16.892Z,6.81
2018-01-18T14:31:44.430Z,7.14
2018-01-18T14:34:11.966Z,7.36
2018-01-18T14:36:39.514Z,7.48
2018-01-18T14:39:07.110Z,7.31
2018-01-18T14:41:34.654Z,6.93
2018-01-18T14:44:02.186Z,6.54
2018-01-18T14:46:29.915Z,6.25
2018-01-18T14:48:57.465Z,5.76
2018-01-18T14:51:24.995Z,5.33
2018-01-18T14:53:52.562Z,4.88
2018-01-18T14:56:20.102Z,4.46
2018-01-18T14:58:47.657Z,4.29
2018-01-18T15:01:15.193Z,4.22
2018-01-18T15:03:42.771Z,4.12
2018-01-18T15:06:10.459Z,3.95
2018-01-18T15:08:37.982Z,3.87
2018-01-18T15:11:05.584Z,3.75
2018-01-18T15:13:33.212Z,3.68
2018-01-18T15:16:01.030Z,3.64
2018-01-18T15:18:28.557Z,3.60
2018-01-18T15:20:56.269Z,3.51
2018-01-18T15:23:23.846Z,3.44
2018-01-18T15:25:51.366Z,3.43
2018-01-18T15:28:19.118Z,3.35
2018-01-18T15:30:46.663Z,3.32
2018-01-18T15:33:14.237Z,3.32
2018-01-18T15:35:41.766Z,3.29
2018-01-18T15:38:09.370Z,3.26
2018-01-18T15:40:36.906Z,3.27
2018-01-18T15:43:04.539Z,3.26
2018-01-18T15:45:32.103Z,3.25
2018-01-18T15:47:59.861Z,3.20
2018-01-18T15:50:27.578Z,3.11
2018-01-18T15:52:55.101Z,3.11
2018-01-18T15:55:22.686Z,3.09
2018-01-18T15:57:50.503Z,3.10
2018-01-18T16:00:18.154Z,3.07
2018-01-18T16:02:46.069Z,3.06
2018-01-18T16:05:13.598Z,3.08
2018-01-18T16:07:41.138Z,3.07
2018-01-18T16:10:08.670Z,3.05
2018-01-18T16:12:36.262Z,3.04
2018-01-18T16:15:03.958Z,3.03
2018-01-18T16:17:31.487Z,3.01
2018-01-18T16:19:59.293Z,3.01
2018-01-18T16:22:27.011Z,3.02
2018-01-18T16:24:54.679Z,3.00
2018-01-18T16:27:22.449Z,2.96
2018-01-18T16:29:49.982Z,2.96
2018-01-18T16:32:17.540Z,2.91
2018-01-18T16:34:45.301Z,2.91
2018-01-18T16:37:12.879Z,2.85
2018-01-18T16:39:40.469Z,2.86
2018-01-18T16:42:08.258Z,2.86
2018-01-18T16:44:35.790Z,2.87
2018-01-18T16:47:03.325Z,2.88
2018-01-18T16:49:30.984Z,2.89
2018-01-18T16:51:58.554Z,2.86
2018-01-18T16:54:26.098Z,2.87
2018-01-18T16:56:53.674Z,2.86
2018-01-18T16:59:21.201Z,2.91
2018-01-18T17:01:48.899Z,2.91
2018-01-18T17:04:16.430Z,2.89
2018-01-18T17:06:44.073Z,2.95
2018-01-18T17:09:11.753Z,2.95
2018-01-18T17:11:39.277Z,2.93
2018-01-18T17:14:06.821Z,2.93
2018-01-18T17:16:34.357Z,2.92
2018-01-18T17:19:01.950Z,2.91
2018-01-18T17:21:29.739Z,2.87
2018-01-18T17:23:57.388Z,2.88
2018-01-18T17:26:24.941Z,2.87
2018-01-18T17:28:52.485Z,2.87
2018-01-18T17:31:20.110Z,2.89
2018-01-18T17:33:47.854Z,2.90
2018-01-18T17:36:15.562Z,2.83
2018-01-18T17:38:43.270Z,2.87
2018-01-18T17:41:10.841Z,2.84
2018-01-18T17:43:38.600Z,2.79
2018-01-18T17:46:06.270Z,2.89
2018-01-18T17:48:33.803Z,2.85
2018-01-18T17:51:01.378Z,2.82
2018-01-18T17:53:28.958Z,2.81
2018-01-18T17:55:56.486Z,2.85
2018-01-18T17:58:24.066Z,2.84
2018-01-18T18:00:51.732Z,2.91
2018-01-18T18:03:19.299Z,2.94
2018-01-18T18:05:46.850Z,2.94
2018-01-18T18:08:14.434Z,2.95
2018-01-18T18:10:41.991Z,3.00
2018-01-18T18:13:09.672Z,3.00
2018-01-18T18:15:37.245Z,2.99
2018-01-18T18:18:04.955Z,2.98
2018-01-18T18:20:32.562Z,2.97
2018-01-18T18:23:00.187Z,3.01
2018-01-18T18:25:27.717Z,3.00
2018-01-18T18:27:55.288Z,3.07
2018-01-18T18:30:22.833Z,3.10
2018-01-18T18:32:50.414Z,3.10
2018-01-18T18:35:17.942Z,3.14
2018-01-18T18:37:45.482Z,3.12
2018-01-18T18:40:13.029Z,3.14
2018-01-18T18:42:40.566Z,3.17
2018-01-18T18:45:08.412Z,3.20
2018-01-18T18:47:35.987Z,3.23
2018-01-18T18:50:03.610Z,3.18
2018-01-18T18:52:31.299Z,3.11
2018-01-18T18:54:58.845Z,3.16
2018-01-18T18:57:26.440Z,3.11
2018-01-18T18:59:53.974Z,3.06
2018-01-18T19:02:21.506Z,3.06
2018-01-18T19:04:49.077Z,3.03
2018-01-18T19:07:16.626Z,2.98
2018-01-18T19:09:44.190Z,2.94
2018-01-18T19:12:11.940Z,2.97
2018-01-18T19:14:39.514Z,2.99
2018-01-18T19:17:07.050Z,2.99
2018-01-18T19:19:34.609Z,2.98
2018-01-18T19:22:02.315Z,2.98
2018-01-18T19:24:29.845Z,2.95
2018-01-18T19:26:57.386Z,2.98
2018-01-18T19:29:24.918Z,2.94
2018-01-18T19:31:52.682Z,2.92
2018-01-18T19:34:20.302Z,2.94
2018-01-18T19:36:47.918Z,2.87
2018-01-18T19:39:15.458Z,2.81
2018-01-18T19:41:42.990Z,2.77
2018-01-18T19:44:10.540Z,2.70
2018-01-18T19:46:38.105Z,2.63
2018-01-18T19:49:05.770Z,2.67
2018-01-18T19:51:33.423Z,2.65
2018-01-18T19:54:00.958Z,2.62
2018-01-18T19:56:28.794Z,2.66
2018-01-18T19:58:56.367Z,2.64
2018-01-18T20:01:24.055Z,2.60
2018-01-18T20:03:51.578Z,2.59
2018-01-18T20:06:19.115Z,2.61
2018-01-18T20:08:46.747Z,2.58
2018-01-18T20:11:14.282Z,2.49
2018-01-18T20:13:41.846Z,2.45
2018-01-18T20:16:09.511Z,2.40
2018-01-18T20:18:37.113Z,2.33
2018-01-18T20:21:04.651Z,2.30
2018-01-18T20:23:32.248Z,2.26
2018-01-18T20:25:59.793Z,2.25
2018-01-18T20:28:27.339Z,2.20
2018-01-18T20:30:54.901Z,2.25
2018-01-18T20:33:22.478Z,2.27
2018-01-18T20:35:50.147Z,2.35
2018-01-18T20:38:17.860Z,2.27
2018-01-18T20:40:45.402Z,2.22
2018-01-18T20:43:13.065Z,2.16
2018-01-18T20:45:40.599Z,2.07
2018-01-18T20:48:08.146Z,1.99
2018-01-18T20:50:35.686Z,2.00
2018-01-18T20:53:03.467Z,1.82
2018-01-18T20:55:31.004Z,1.82
2018-01-18T20:57:58.538Z,1.77
2018-01-18T21:00:26.221Z,1.69
2018-01-18T21:02:53.758Z,1.68
2018-01-18T21:05:21.297Z,1.64
2018-01-18T21:07:48.977Z,1.62
2018-01-18T21:10:16.581Z,1.57
2018-01-18T21:12:44.310Z,1.67
2018-01-18T21:15:11.938Z,1.65
2018-01-18T21:17:39.495Z,1.60
2018-01-18T21:20:07.246Z,1.54
2018-01-18T21:22:34.842Z,1.55
2018-01-18T21:25:02.379Z,1.50
2018-01-18T21:27:29.958Z,1.51
2018-01-18T21:29:57.482Z,1.53
2018-01-18T21:32:25.014Z,1.58
2018-01-18T21:34:52.572Z,1.55
2018-01-18T21:37:20.258Z,1.51
2018-01-18T21:39:47.908Z,1.53
2018-01-18T21:42:15.513Z,1.52
2018-01-18T21:44:43.094Z,1.59
2018-01-18T21:47:11.540Z,1.57
2018-01-18T21:49:39.070Z,1.60
2018-01-18T21:52:06.613Z,1.55
2018-01-18T21:54:34.165Z,1.53
2018-01-18T21:57:01.833Z,1.50
2018-01-18T21:59:29.550Z,1.40
2018-01-18T22:01:57.144Z,1.35
2018-01-18T22:04:24.685Z,1.29
2018-01-18T22:06:52.214Z,1.25
2018-01-18T22:09:19.758Z,1.21
2018-01-18T22:11:47.290Z,1.13
2018-01-18T22:14:14.830Z,1.01
2018-01-18T22:16:42.362Z,0.98
2018-01-18T22:19:09.930Z,0.98
2018-01-18T22:21:37.473Z,0.98
2018-01-18T22:24:05.019Z,0.96
2018-01-18T22:26:32.562Z,0.92
2018-01-18T22:29:00.101Z,0.89
2018-01-18T22:31:27.655Z,0.88
2018-01-18T22:33:55.187Z,0.83
2018-01-18T22:36:22.758Z,0.77
2018-01-18T22:38:50.322Z,0.80
2018-01-18T22:41:17.850Z,0.75
2018-01-18T22:43:45.427Z,0.71
2018-01-18T22:46:12.974Z,0.70
2018-01-18T22:48:40.526Z,0.79
2018-01-18T22:51:08.070Z,0.85
2018-01-18T22:53:35.642Z,0.83
2018-01-18T22:56:03.177Z,0.79
2018-01-18T22:58:30.710Z,0.83
2018-01-18T23:00:58.262Z,0.83
2018-01-18T23:03:25.798Z,0.82
2018-01-18T23:05:53.360Z,0.81
2018-01-18T23:08:20.889Z,0.81
2018-01-18T23:10:48.454Z,0.79
2018-01-18T23:13:15.982Z,0.85
2018-01-18T23:15:43.510Z,0.82
2018-01-18T23:18:11.050Z,0.79
2018-01-18T23:20:38.730Z,0.78
2018-01-18T23:23:06.267Z,0.70
2018-01-18T23:25:33.794Z,0.69
2018-01-18T23:28:01.378Z,0.72
2018-01-18T23:30:29.103Z,0.73
2018-01-18T23:32:56.818Z,0.76
2018-01-18T23:35:24.350Z,0.74
2018-01-18T23:37:51.886Z,0.77
2018-01-18T23:40:19.485Z,0.69
2018-01-18T23:42:47.090Z,0.64
2018-01-18T23:45:14.907Z,0.65
2018-01-18T23:47:42.441Z,0.58
2018-01-18T23:50:09.998Z,0.50
2018-01-18T23:52:37.553Z,0.48
2018-01-18T23:55:05.279Z,0.50
2018-01-18T23:57:32.899Z,0.47
